createdAt,value
2022-11-02T00:04:44.921Z,47
2022-11-02T00:09:45.029Z,47
2022-11-02T00:14:44.923Z,47
2022-11-02T00:19:44.919Z,47
2022-11-02T00:24:44.805Z,47
2022-11-02T00:29:44.840Z,47
2022-11-02T00:34:44.822Z,46
2022-11-02T00:39:44.723Z,46
2022-11-02T00:44:44.776Z,46
2022-11-02T00:49:44.705Z,46
2022-11-02T00:54:44.743Z,46
2022-11-02T00:59:45.070Z,89.9
2022-11-02T01:04:44.990Z,89.4
2022-11-02T01:09:44.692Z,45
2022-11-02T01:14:44.833Z,44
2022-11-02T01:19:44.681Z,44
2022-11-02T01:24:44.799Z,88.7
2022-11-02T01:29:44.631Z,88.8
2022-11-02T01:34:44.943Z,42
2022-11-02T01:39:44.713Z,42
2022-11-02T01:44:44.746Z,43
2022-11-02T01:49:46.466Z,43
2022-11-02T01:54:44.837Z,43
2022-11-02T01:59:44.565Z,43
2022-11-02T02:04:44.703Z,43
2022-11-02T02:09:48.669Z,43
2022-11-02T02:14:45.196Z,43
2022-11-02T02:19:44.579Z,43
2022-11-02T02:24:48.531Z,43
2022-11-02T02:29:44.516Z,43
2022-11-02T02:34:44.814Z,43
2022-11-02T02:39:44.840Z,44
2022-11-02T02:44:44.827Z,44
2022-11-02T02:49:47.903Z,44
2022-11-02T02:54:44.444Z,45
2022-11-02T02:59:44.856Z,45
2022-11-02T03:04:45.049Z,45
2022-11-02T03:09:44.763Z,45
2022-11-02T03:14:50.633Z,45
2022-11-02T03:19:44.764Z,45
2022-11-02T03:24:44.537Z,45
2022-11-02T03:29:44.465Z,45
2022-11-02T03:34:44.816Z,45
2022-11-02T03:39:44.537Z,45
2022-11-02T03:44:46.865Z,45
2022-11-02T03:49:44.601Z,45
2022-11-02T03:54:44.555Z,87.9
2022-11-02T03:59:44.686Z,87.1
2022-11-02T04:04:44.462Z,86.8
2022-11-02T04:09:44.508Z,89.2
2022-11-02T04:14:44.451Z,43
2022-11-02T04:19:48.665Z,89.5
2022-11-02T04:24:44.578Z,89.6
2022-11-02T04:29:44.510Z,88.7
2022-11-02T04:34:44.573Z,88.4
2022-11-02T04:39:44.503Z,88.8
2022-11-02T04:44:44.820Z,43
2022-11-02T04:49:44.723Z,44
2022-11-02T04:54:44.736Z,44
2022-11-02T04:59:44.409Z,46
2022-11-02T05:04:44.442Z,46
2022-11-02T05:09:44.535Z,47
2022-11-02T05:14:44.527Z,47
2022-11-02T05:19:44.673Z,48
2022-11-02T05:24:44.498Z,48
2022-11-02T05:29:44.333Z,48
2022-11-02T05:34:44.553Z,48
2022-11-02T05:39:47.715Z,48
2022-11-02T05:44:44.850Z,48
2022-11-02T05:49:44.604Z,48
2022-11-02T05:54:44.542Z,48
2022-11-02T05:59:46.792Z,48
2022-11-02T06:04:44.520Z,48
2022-11-02T06:09:44.650Z,48
2022-11-02T06:14:44.486Z,48
2022-11-02T06:19:44.446Z,48
2022-11-02T06:24:44.549Z,48
2022-11-02T06:29:44.275Z,48
2022-11-02T06:34:44.574Z,89.7
2022-11-02T06:39:44.485Z,86.5
2022-11-02T06:56:22.133Z,84.3
2022-11-02T06:56:29.390Z,84.3
2022-11-02T06:56:36.160Z,84.3
2022-11-02T06:59:44.638Z,84.5
2022-11-02T07:04:44.484Z,85.3
2022-11-02T07:09:44.257Z,85.7
2022-11-02T07:14:44.532Z,85.8
2022-11-02T07:19:44.336Z,85.1
2022-11-02T07:24:44.542Z,84.8
2022-11-02T07:29:44.470Z,82.9
2022-11-02T07:34:44.490Z,83
2022-11-02T07:39:44.507Z,82.1
2022-11-02T07:44:44.518Z,81.6
2022-11-02T07:49:44.790Z,82.6
2022-11-02T07:54:44.783Z,82.6
2022-11-02T07:59:44.251Z,80.8
2022-11-02T08:04:45.229Z,81.1
2022-11-02T08:09:44.476Z,80.5
2022-11-02T08:14:44.259Z,79.2
2022-11-02T08:19:44.503Z,80
2022-11-02T08:24:44.308Z,79.2
2022-11-02T08:29:44.534Z,78.5
2022-11-02T08:34:44.376Z,78.4
2022-11-02T08:39:44.256Z,78.6
2022-11-02T08:44:44.142Z,80.7
2022-11-02T08:49:44.245Z,79.1
2022-11-02T08:54:44.411Z,78.1
2022-11-02T08:59:44.146Z,76.5
2022-11-02T09:04:44.201Z,78.1
2022-11-02T09:09:44.403Z,78.2
2022-11-02T09:14:44.193Z,79
2022-11-02T09:19:44.215Z,78.4
2022-11-02T09:24:44.475Z,79.4
2022-11-02T09:29:44.420Z,80.2
2022-11-02T09:34:44.350Z,80.3
2022-11-02T09:39:44.172Z,79.8
2022-11-02T09:44:44.266Z,77.3
2022-11-02T09:49:44.188Z,78.7
2022-11-02T09:54:44.289Z,77.9
2022-11-02T09:59:44.130Z,76.9
2022-11-02T10:04:44.103Z,75.6
2022-11-02T10:09:44.135Z,75
2022-11-02T10:14:49.106Z,74.2
2022-11-02T10:19:44.144Z,74.4
2022-11-02T10:24:44.374Z,73.2
2022-11-02T10:29:47.549Z,74.4
2022-11-02T10:34:45.571Z,75.3
2022-11-02T10:39:44.105Z,75.5
2022-11-02T10:44:44.032Z,73.9
2022-11-02T10:49:44.138Z,74.3
2022-11-02T10:54:44.071Z,74.6
2022-11-02T10:59:44.233Z,75.3
2022-11-02T11:04:44.170Z,75.8
2022-11-02T11:09:46.641Z,74.5
2022-11-02T11:19:44.209Z,74
2022-11-02T11:24:44.225Z,74.4
2022-11-02T11:29:44.286Z,74.6
2022-11-02T11:34:44.390Z,72.3
2022-11-02T11:39:45.328Z,71.5
2022-11-02T11:44:44.041Z,71.5
2022-11-02T11:50:09.054Z,69.4
2022-11-02T11:54:44.190Z,69.3
2022-11-02T11:59:45.390Z,66.8
2022-11-02T12:04:44.072Z,66.5
2022-11-02T12:09:44.005Z,66
2022-11-02T12:14:44.156Z,64.4
2022-11-02T12:19:53.070Z,64
2022-11-02T12:24:44.118Z,63
2022-11-02T12:29:52.867Z,61.6
2022-11-02T12:34:46.572Z,62.2
2022-11-02T12:39:43.962Z,59.9
2022-11-02T12:44:44.076Z,61
2022-11-02T12:49:44.031Z,63.8
2022-11-02T12:54:44.078Z,65
2022-11-02T12:59:45.466Z,65
2022-11-02T13:04:43.982Z,65.4
2022-11-02T13:09:48.928Z,66.3
2022-11-02T13:14:46.194Z,64.4
2022-11-02T13:19:44.005Z,65.2
2022-11-02T13:24:44.163Z,65
2022-11-02T13:29:44.194Z,65.8
2022-11-02T13:34:44.132Z,65.9
2022-11-02T13:39:44.122Z,66.8
2022-11-02T13:44:43.883Z,64.6
2022-11-02T13:49:44.126Z,64.8
2022-11-02T13:54:45.523Z,65.4
2022-11-02T13:59:44.071Z,65.4
2022-11-02T14:04:43.902Z,67
2022-11-02T14:09:44.132Z,67.8
2022-11-02T14:14:44.228Z,68.3
2022-11-02T14:19:43.862Z,68.4
2022-11-02T14:24:43.877Z,68.9
2022-11-02T14:29:43.881Z,70
2022-11-02T14:34:48.009Z,69.7
2022-11-02T14:39:44.094Z,69.5
2022-11-02T14:44:43.841Z,71.1
2022-11-02T14:49:47.903Z,70.8
2022-11-02T14:54:43.778Z,70.7
2022-11-02T14:59:45.113Z,70.9
2022-11-02T15:04:43.931Z,71.5
2022-11-02T15:09:43.834Z,71.7
2022-11-02T15:14:43.952Z,72.4
2022-11-02T15:19:44.036Z,72.7
2022-11-02T15:24:44.286Z,72.8
2022-11-02T15:29:43.962Z,72.8
2022-11-02T15:34:43.953Z,73.4
2022-11-02T15:39:46.995Z,73
2022-11-02T15:44:43.850Z,73.1
2022-11-02T15:49:59.754Z,73.7
2022-11-02T15:54:46.227Z,74.2
2022-11-02T15:59:43.928Z,75.4
2022-11-02T16:04:44.537Z,74.7
2022-11-02T16:09:43.864Z,74.7
2022-11-02T16:14:43.802Z,74.6
2022-11-02T16:19:43.886Z,74
2022-11-02T16:24:43.825Z,72
2022-11-02T16:29:43.647Z,72
2022-11-02T16:34:43.755Z,71.2
2022-11-02T16:39:43.970Z,70.5
2022-11-02T16:49:43.998Z,70.1
2022-11-02T16:54:43.774Z,70.4
2022-11-02T16:59:43.847Z,70.3
2022-11-02T17:04:45.555Z,70.6
2022-11-02T17:09:43.914Z,70.2
2022-11-02T17:14:43.888Z,70.4
2022-11-02T17:19:43.771Z,70.3
2022-11-02T17:24:43.988Z,71
2022-11-02T17:29:43.808Z,71
2022-11-02T17:34:43.574Z,70.1
2022-11-02T17:39:43.722Z,69.5
2022-11-02T17:44:43.600Z,68.5
2022-11-02T17:49:43.738Z,68.5
2022-11-02T17:54:43.919Z,68.9
2022-11-02T17:59:43.583Z,68.5
2022-11-02T18:09:43.655Z,68.3
2022-11-02T18:14:43.677Z,67.8
2022-11-02T18:19:43.626Z,67.9
2022-11-02T18:24:43.823Z,67.9
2022-11-02T18:29:43.580Z,68.5
2022-11-02T18:34:43.737Z,68.6
2022-11-02T18:39:43.584Z,67.8
2022-11-02T18:44:43.548Z,68.4
2022-11-02T18:49:43.913Z,68
2022-11-02T18:54:43.723Z,67.6
2022-11-02T18:59:43.602Z,68.4
2022-11-02T19:04:43.784Z,69
2022-11-02T19:09:43.757Z,68.3
2022-11-02T19:14:43.683Z,68.5
2022-11-02T19:19:43.701Z,68.4
2022-11-02T19:24:43.700Z,68.4
2022-11-02T19:29:43.551Z,68.8
2022-11-02T19:34:43.589Z,69.4
2022-11-02T19:39:43.768Z,69.2
2022-11-02T19:44:43.570Z,69.7
2022-11-02T19:49:43.747Z,69.9
2022-11-02T19:54:43.707Z,69.7
2022-11-02T19:59:43.588Z,69.6
2022-11-02T20:04:43.470Z,70.2
2022-11-02T20:09:43.395Z,70.2
2022-11-02T20:14:43.403Z,70.4
2022-11-02T20:19:43.458Z,70.3
2022-11-02T20:24:43.541Z,70.6
2022-11-02T20:29:43.381Z,70.8
2022-11-02T20:34:43.560Z,71.1
2022-11-02T20:39:43.463Z,71.5
2022-11-02T20:44:43.684Z,71.5
2022-11-02T20:49:50.583Z,71.3
2022-11-02T20:54:43.445Z,71.5
2022-11-02T20:59:43.438Z,71.8
2022-11-02T21:04:43.697Z,71.9
2022-11-02T21:09:43.557Z,71.9
2022-11-02T21:14:43.438Z,72.2
2022-11-02T21:19:43.523Z,72.3
2022-11-02T21:24:43.566Z,72.9
2022-11-02T21:29:43.450Z,72.7
2022-11-02T21:34:43.380Z,73.2
2022-11-02T21:39:43.435Z,73.3
2022-11-02T21:44:43.263Z,73.2
2022-11-02T21:49:43.495Z,73.2
2022-11-02T21:54:43.523Z,73.6
2022-11-02T21:59:43.372Z,73.6
2022-11-02T22:04:43.597Z,74.1
2022-11-02T22:09:43.552Z,74.5
2022-11-02T22:14:43.367Z,74.5
2022-11-02T22:19:43.412Z,74.5
2022-11-02T22:24:44.952Z,75.3
2022-11-02T22:29:43.543Z,74.6
2022-11-02T22:34:43.643Z,74.9
2022-11-02T22:39:43.563Z,75.2
2022-11-02T22:44:43.334Z,75.5
2022-11-02T22:49:43.671Z,76.2
2022-11-02T22:54:43.346Z,76.2
2022-11-02T22:59:43.424Z,76.4
2022-11-02T23:04:43.501Z,76.3
2022-11-02T23:09:43.253Z,76.5
2022-11-02T23:14:43.448Z,76.6
2022-11-02T23:19:43.540Z,76.6
2022-11-02T23:24:44.266Z,76.8
2022-11-02T23:29:43.201Z,76.6
2022-11-02T23:34:43.579Z,76.8
2022-11-02T23:39:43.466Z,76.1
2022-11-02T23:44:43.339Z,75.9
2022-11-02T23:49:43.440Z,76.3
2022-11-02T23:54:43.187Z,75.7
2022-11-02T23:59:43.475Z,75.7
